Orion Explorer — LNDT — position and weather

sailwx.info

Track history (hours):
 
Tides and Currents Weather Stations Pressure Air Temp Water Temp Dewpoint Dewpoint Depression Visibility Wind Speed Wind Dir Waves Ship Positions

Orion Explorer

Last reported at 2016-Dec-05 09:07 UTC. Time now 2016-Dec-05 16:41 UTC.
Position N 68°59' E 016°60'.

Length 59 m; draft 4.5 m.

Type: Cargo ship. MMSI: 259496000.

Date/timePositionNaut miles runAvg speedWind from/ knotsBaromVisibWave heightAir tempDewpointWater temp
2016-Dec-05 09:07N 68°59' E 016°60'610.8
2016-Dec-05 08:34N 69°01' E 017°16'1110.7
2016-Dec-05 07:34N 69°07' E 017°39'9 8.9
2016-Dec-05 06:33N 69°13' E 017°58'  
2016-Dec-03 01:27N 71°05' E 028°26'4 1.5
2016-Dec-02 22:33N 71°07' E 028°14'6 6.3
2016-Dec-02 21:33N 71°08' E 027°55'13 6.1
2016-Dec-02 19:20N 71°04' E 027°16'5 6.6
2016-Dec-02 18:33N 70°59' E 027°07'7 6.7
2016-Dec-02 17:32N 70°52' E 027°04'8 7.0
2016-Dec-02 16:27N 70°45' E 027°03'284316.9
2016-Dec-02 15:33N 68°34' E 014°57'0 0.0
2016-Dec-02 14:32N 68°34' E 014°57'0 0.0
2016-Dec-02 13:33N 68°34' E 014°57'0 0.0
2016-Dec-02 12:32N 68°34' E 014°57'21872.8
2016-Dec-02 09:33N 70°41' E 023°26'9 8.0
2016-Dec-02 08:27N 70°35' E 023°08'20963.2
2016-Dec-02 05:08N 68°34' E 014°57'0 0.0
2016-Dec-02 04:31N 68°34' E 014°57'0 0.0
2016-Dec-02 03:33N 68°34' E 014°57'0 0.0
2016-Dec-02 02:32N 68°34' E 014°57'0 0.0
2016-Dec-02 01:20N 68°34' E 014°57'0 0.0
2016-Dec-02 00:33N 68°34' E 014°57'0 0.0
2016-Dec-01 23:32N 68°34' E 014°57'0 0.0
2016-Dec-01 22:33N 68°34' E 014°57'5 5.4
2016-Dec-01 21:34N 68°31' E 015°08'7 6.4
2016-Dec-01 20:32N 68°25' E 015°07'8 7.8
2016-Dec-01 19:33N 68°18' E 014°58'5 4.6
2016-Dec-01 18:33N 68°19' E 015°11'5 5.1
2016-Dec-01 17:33N 68°23' E 015°19'4 2.0
2016-Dec-01 15:33N 68°20' E 015°12'4 4.4
2016-Dec-01 14:32N 68°16' E 015°03'4 3.8
2016-Dec-01 13:32N 68°20' E 015°01'1 0.6
2016-Dec-01 12:33N 68°20' E 015°02'6 4.0
2016-Dec-01 11:05N 68°26' E 015°09'4 7.7
2016-Dec-01 10:33N 68°30' E 015°14'0 0.0
2016-Dec-01 09:33N 68°30' E 015°14'1 0.9
2016-Dec-01 08:33N 68°30' E 015°13'6 6.3
2016-Dec-01 07:33N 68°36' E 015°19'2 1.5
2016-Dec-01 06:32N 68°37' E 015°23'7 7.4
2016-Dec-01 05:33N 68°35' E 015°04'2 2.4
2016-Dec-01 04:33N 68°34' E 014°57'0 0.0
2016-Dec-01 03:33N 68°34' E 014°57'0 0.0
2016-Dec-01 02:33N 68°34' E 014°57'0 0.0
2016-Dec-01 01:33N 68°34' E 014°57'0 0.1
2016-Dec-01 00:33N 68°35' E 014°57'0 0.0
2016-Nov-30 23:33N 68°35' E 014°57'0 0.0
2016-Nov-30 22:33N 68°35' E 014°57'0 0.0
2016-Nov-30 21:33N 68°35' E 014°57'0 0.0
2016-Nov-30 20:32N 68°35' E 014°57'0 0.0
2016-Nov-30 19:33N 68°35' E 014°57'0 0.0
2016-Nov-30 18:33N 68°35' E 014°57'0 0.0
2016-Nov-30 17:33N 68°35' E 014°57'0 0.0
2016-Nov-30 16:33N 68°35' E 014°57'0 0.0
2016-Nov-30 15:33N 68°35' E 014°57'0 0.0
2016-Nov-30 14:33N 68°35' E 014°57'0 0.0
2016-Nov-30 13:33N 68°35' E 014°57'0 0.0
2016-Nov-30 12:33N 68°35' E 014°57'0 0.0
2016-Nov-30 11:33N 68°35' E 014°57'0 0.0
2016-Nov-30 10:33N 68°35' E 014°57'0 0.0
2016-Nov-30 09:33N 68°35' E 014°57'0 0.0
2016-Nov-30 08:33N 68°35' E 014°57'0 0.0
2016-Nov-30 07:33N 68°35' E 014°57'0 0.0
2016-Nov-30 06:33N 68°35' E 014°57'7778.0
2016-Nov-30 05:33N 69°16' E 017°58'8 8.4
2016-Nov-30 04:33N 69°08' E 017°47'5555.5
2016-Nov-30 03:33N 68°47' E 015°26'8 7.9
2016-Nov-30 02:32N 68°54' E 015°34'6 6.4
2016-Nov-30 01:33N 68°59' E 015°46'8 7.9
2016-Nov-30 00:33N 68°60' E 016°08'7 7.2
2016-Nov-29 23:33N 68°59' E 016°28'8 7.7
2016-Nov-29 22:32N 68°59' E 016°49'7 7.3
2016-Nov-29 21:33N 68°60' E 017°09'8 8.0
2016-Nov-29 20:33N 69°06' E 017°25'8 7.9
2016-Nov-29 19:33N 69°08' E 017°45'7 6.5
2016-Nov-29 18:33N 69°12' E 017°60'7 7.2
2016-Nov-29 17:33N 69°20' E 018°01'7 7.5
2016-Nov-29 16:33N 69°27' E 018°07'6 6.4
2016-Nov-29 15:33N 69°30' E 018°22'8 7.8
2016-Nov-29 14:33N 69°33' E 018°43'8 8.0
2016-Nov-29 13:33N 69°39' E 018°59'3 3.5
2016-Nov-29 12:33N 69°42' E 019°04'0 0.2
2016-Nov-29 11:33N 69°42' E 019°04'7 7.1
2016-Nov-29 10:33N 69°47' E 019°18'7 7.3
2016-Nov-29 09:33N 69°50' E 019°37'8 7.6
2016-Nov-29 08:33N 69°54' E 019°56'8 7.7
2016-Nov-29 07:33N 69°59' E 020°14'7 7.4
2016-Nov-29 06:33N 70°01' E 020°35'8 8.0
2016-Nov-29 05:33N 70°05' E 020°56'8 7.6
2016-Nov-29 04:32N 70°11' E 021°06'7 7.1
2016-Nov-29 03:32N 70°17' E 021°20'9 8.8
2016-Nov-29 02:33N 70°23' E 021°39'7 7.3
2016-Nov-29 01:33N 70°26' E 021°58'7 7.3
2016-Nov-29 00:32N 70°28' E 022°20'9 9.0
2016-Nov-28 23:33N 70°30' E 022°46'8 7.9
2016-Nov-28 22:33N 70°34' E 023°06'8 7.5
2016-Nov-28 21:33N 70°39' E 023°22'7 7.3
2016-Nov-28 20:33N 70°45' E 023°37'15 7.6
2016-Nov-28 18:33N 70°55' E 024°11'26 6.4
2016-Nov-28 14:25N 70°56' E 025°32'6 7.2
2016-Nov-28 13:32N 70°57' E 025°51'8 8.2
2016-Nov-28 12:33N 70°59' E 026°15'8 8.2
2016-Nov-28 11:33N 71°02' E 026°39'8 7.6
2016-Nov-28 10:33N 71°05' E 027°01'7 7.0
2016-Nov-28 09:32N 71°07' E 027°21'8 8.3
2016-Nov-28 08:33N 71°09' E 027°46'8 8.4
2016-Nov-28 07:33N 71°07' E 028°12'8 8.2
2016-Nov-28 06:33N 71°03' E 028°33'8 7.8
2016-Nov-28 05:34N 70°59' E 028°53'8 7.6
2016-Nov-28 04:33N 70°55' E 029°13'8 7.7
2016-Nov-28 03:34N 70°50' E 029°32'8 7.5
2016-Nov-28 02:33N 70°46' E 029°52'7 7.4
2016-Nov-28 01:33N 70°42' E 030°10'7 6.8
2016-Nov-28 00:32N 70°36' E 030°21'4 1.2
2016-Nov-27 21:17N 70°34' E 030°29'281103.0
2016-Nov-27 18:33N 69°07' E 017°33'1110.9
2016-Nov-27 17:33N 69°11' E 018°01'267266.8
2016-Nov-27 16:33N 70°08' E 030°33'15 6.2
2016-Nov-27 14:11N 70°03' E 029°53'5 7.5
2016-Nov-27 13:33N 70°03' E 029°39'9 2.2
2016-Nov-27 09:21N 70°03' E 029°12'2 2.5
2016-Nov-27 08:21N 70°01' E 029°18'5 6.0
2016-Nov-27 07:31N 70°02' E 029°32'8 7.8
2016-Nov-27 06:30N 70°02' E 029°56'8 7.8
2016-Nov-27 05:27N 70°05' E 030°19'2 2.5
2016-Nov-27 04:34N 70°06' E 030°24'8 7.7
2016-Nov-27 03:33N 70°11' E 030°42'11 7.4
2016-Nov-27 02:06N 70°18' E 031°05'4 7.6
2016-Nov-27 01:33N 70°22' E 031°04'21 8.5
2016-Nov-26 23:07N 70°38' E 030°24'4 6.8
2016-Nov-26 22:33N 70°41' E 030°16'7 7.0
2016-Nov-26 21:33N 70°45' E 029°58'7 7.5
2016-Nov-26 20:33N 70°49' E 029°39'7 7.3
2016-Nov-26 19:32N 70°53' E 029°20'7 7.0
2016-Nov-26 18:32N 70°57' E 029°02'22 7.4
2016-Nov-26 15:34N 71°08' E 028°03'5 4.4
2016-Nov-26 14:19N 71°08' E 027°46'6 7.5
2016-Nov-26 13:32N 71°06' E 027°29'22 7.4
2016-Nov-26 10:33N 70°45' E 027°18'1 0.6
2016-Nov-26 09:23N 70°44' E 027°19'2 2.3
2016-Nov-26 08:33N 70°46' E 027°16'1 0.9
2016-Nov-26 07:21N 70°46' E 027°13'6 6.3
2016-Nov-26 06:28N 70°42' E 027°03'4 4.2
2016-Nov-26 05:32N 70°38' E 027°06'14 2.8
2016-Nov-26 00:32N 70°51' E 026°51'7 7.3
2016-Nov-25 23:33N 70°58' E 026°44'7 7.3
2016-Nov-25 22:32N 70°58' E 026°22'7 7.2
2016-Nov-25 21:32N 70°57' E 025°59'7 7.4
2016-Nov-25 20:33N 70°56' E 025°37'7 7.5
2016-Nov-25 19:33N 70°59' E 025°17'8 7.6
2016-Nov-25 18:31N 70°60' E 024°53'8 7.7
2016-Nov-25 17:33N 71°01' E 024°30'  
Track history (hours):
 
Tides and Currents Weather Stations Pressure Air Temp Water Temp Dewpoint Dewpoint Depression Visibility Wind Speed Wind Dir Waves Ship Positions

Orion Explorer

Last reported at 2016-Dec-05 09:07 UTC. Time now 2016-Dec-05 16:41 UTC.
Position N 68°59' E 016°60'.

Length 59 m; draft 4.5 m.

Type: Cargo ship. MMSI: 259496000.

Date/timePositionNaut miles runAvg speedWind from/ knotsBaromVisibWave heightAir tempDewpointWater temp
2016-Dec-05 09:07N 68°59' E 016°60'610.8
2016-Dec-05 08:34N 69°01' E 017°16'1110.7
2016-Dec-05 07:34N 69°07' E 017°39'9 8.9
2016-Dec-05 06:33N 69°13' E 017°58'  
2016-Dec-03 01:27N 71°05' E 028°26'4 1.5
2016-Dec-02 22:33N 71°07' E 028°14'6 6.3
2016-Dec-02 21:33N 71°08' E 027°55'13 6.1
2016-Dec-02 19:20N 71°04' E 027°16'5 6.6
2016-Dec-02 18:33N 70°59' E 027°07'7 6.7
2016-Dec-02 17:32N 70°52' E 027°04'8 7.0
2016-Dec-02 16:27N 70°45' E 027°03'284316.9
2016-Dec-02 15:33N 68°34' E 014°57'0 0.0
2016-Dec-02 14:32N 68°34' E 014°57'0 0.0
2016-Dec-02 13:33N 68°34' E 014°57'0 0.0
2016-Dec-02 12:32N 68°34' E 014°57'21872.8
2016-Dec-02 09:33N 70°41' E 023°26'9 8.0
2016-Dec-02 08:27N 70°35' E 023°08'20963.2
2016-Dec-02 05:08N 68°34' E 014°57'0 0.0
2016-Dec-02 04:31N 68°34' E 014°57'0 0.0
2016-Dec-02 03:33N 68°34' E 014°57'0 0.0
2016-Dec-02 02:32N 68°34' E 014°57'0 0.0
2016-Dec-02 01:20N 68°34' E 014°57'0 0.0
2016-Dec-02 00:33N 68°34' E 014°57'0 0.0
2016-Dec-01 23:32N 68°34' E 014°57'0 0.0
2016-Dec-01 22:33N 68°34' E 014°57'5 5.4
2016-Dec-01 21:34N 68°31' E 015°08'7 6.4
2016-Dec-01 20:32N 68°25' E 015°07'8 7.8
2016-Dec-01 19:33N 68°18' E 014°58'5 4.6
2016-Dec-01 18:33N 68°19' E 015°11'5 5.1
2016-Dec-01 17:33N 68°23' E 015°19'4 2.0
2016-Dec-01 15:33N 68°20' E 015°12'4 4.4
2016-Dec-01 14:32N 68°16' E 015°03'4 3.8
2016-Dec-01 13:32N 68°20' E 015°01'1 0.6
2016-Dec-01 12:33N 68°20' E 015°02'6 4.0
2016-Dec-01 11:05N 68°26' E 015°09'4 7.7
2016-Dec-01 10:33N 68°30' E 015°14'0 0.0
2016-Dec-01 09:33N 68°30' E 015°14'1 0.9
2016-Dec-01 08:33N 68°30' E 015°13'6 6.3
2016-Dec-01 07:33N 68°36' E 015°19'2 1.5
2016-Dec-01 06:32N 68°37' E 015°23'7 7.4
2016-Dec-01 05:33N 68°35' E 015°04'2 2.4
2016-Dec-01 04:33N 68°34' E 014°57'0 0.0
2016-Dec-01 03:33N 68°34' E 014°57'0 0.0
2016-Dec-01 02:33N 68°34' E 014°57'0 0.0
2016-Dec-01 01:33N 68°34' E 014°57'0 0.1
2016-Dec-01 00:33N 68°35' E 014°57'0 0.0
2016-Nov-30 23:33N 68°35' E 014°57'0 0.0
2016-Nov-30 22:33N 68°35' E 014°57'0 0.0
2016-Nov-30 21:33N 68°35' E 014°57'0 0.0
2016-Nov-30 20:32N 68°35' E 014°57'0 0.0
2016-Nov-30 19:33N 68°35' E 014°57'0 0.0
2016-Nov-30 18:33N 68°35' E 014°57'0 0.0
2016-Nov-30 17:33N 68°35' E 014°57'0 0.0
2016-Nov-30 16:33N 68°35' E 014°57'0 0.0
2016-Nov-30 15:33N 68°35' E 014°57'0 0.0
2016-Nov-30 14:33N 68°35' E 014°57'0 0.0
2016-Nov-30 13:33N 68°35' E 014°57'0 0.0
2016-Nov-30 12:33N 68°35' E 014°57'0 0.0
2016-Nov-30 11:33N 68°35' E 014°57'0 0.0
2016-Nov-30 10:33N 68°35' E 014°57'0 0.0
2016-Nov-30 09:33N 68°35' E 014°57'0 0.0
2016-Nov-30 08:33N 68°35' E 014°57'0 0.0
2016-Nov-30 07:33N 68°35' E 014°57'0 0.0
2016-Nov-30 06:33N 68°35' E 014°57'7778.0
2016-Nov-30 05:33N 69°16' E 017°58'8 8.4
2016-Nov-30 04:33N 69°08' E 017°47'5555.5
2016-Nov-30 03:33N 68°47' E 015°26'8 7.9
2016-Nov-30 02:32N 68°54' E 015°34'6 6.4
2016-Nov-30 01:33N 68°59' E 015°46'8 7.9
2016-Nov-30 00:33N 68°60' E 016°08'7 7.2
2016-Nov-29 23:33N 68°59' E 016°28'8 7.7
2016-Nov-29 22:32N 68°59' E 016°49'7 7.3
2016-Nov-29 21:33N 68°60' E 017°09'8 8.0
2016-Nov-29 20:33N 69°06' E 017°25'8 7.9
2016-Nov-29 19:33N 69°08' E 017°45'7 6.5
2016-Nov-29 18:33N 69°12' E 017°60'7 7.2
2016-Nov-29 17:33N 69°20' E 018°01'7 7.5
2016-Nov-29 16:33N 69°27' E 018°07'6 6.4
2016-Nov-29 15:33N 69°30' E 018°22'8 7.8
2016-Nov-29 14:33N 69°33' E 018°43'8 8.0
2016-Nov-29 13:33N 69°39' E 018°59'3 3.5
2016-Nov-29 12:33N 69°42' E 019°04'0 0.2
2016-Nov-29 11:33N 69°42' E 019°04'7 7.1
2016-Nov-29 10:33N 69°47' E 019°18'7 7.3
2016-Nov-29 09:33N 69°50' E 019°37'8 7.6
2016-Nov-29 08:33N 69°54' E 019°56'8 7.7
2016-Nov-29 07:33N 69°59' E 020°14'7 7.4
2016-Nov-29 06:33N 70°01' E 020°35'8 8.0
2016-Nov-29 05:33N 70°05' E 020°56'8 7.6
2016-Nov-29 04:32N 70°11' E 021°06'7 7.1
2016-Nov-29 03:32N 70°17' E 021°20'9 8.8
2016-Nov-29 02:33N 70°23' E 021°39'7 7.3
2016-Nov-29 01:33N 70°26' E 021°58'7 7.3
2016-Nov-29 00:32N 70°28' E 022°20'9 9.0
2016-Nov-28 23:33N 70°30' E 022°46'8 7.9
2016-Nov-28 22:33N 70°34' E 023°06'8 7.5
2016-Nov-28 21:33N 70°39' E 023°22'7 7.3
2016-Nov-28 20:33N 70°45' E 023°37'15 7.6
2016-Nov-28 18:33N 70°55' E 024°11'26 6.4
2016-Nov-28 14:25N 70°56' E 025°32'6 7.2
2016-Nov-28 13:32N 70°57' E 025°51'8 8.2
2016-Nov-28 12:33N 70°59' E 026°15'8 8.2
2016-Nov-28 11:33N 71°02' E 026°39'8 7.6
2016-Nov-28 10:33N 71°05' E 027°01'7 7.0
2016-Nov-28 09:32N 71°07' E 027°21'8 8.3
2016-Nov-28 08:33N 71°09' E 027°46'8 8.4
2016-Nov-28 07:33N 71°07' E 028°12'8 8.2
2016-Nov-28 06:33N 71°03' E 028°33'8 7.8
2016-Nov-28 05:34N 70°59' E 028°53'8 7.6
2016-Nov-28 04:33N 70°55' E 029°13'8 7.7
2016-Nov-28 03:34N 70°50' E 029°32'8 7.5
2016-Nov-28 02:33N 70°46' E 029°52'7 7.4
2016-Nov-28 01:33N 70°42' E 030°10'7 6.8
2016-Nov-28 00:32N 70°36' E 030°21'4 1.2
2016-Nov-27 21:17N 70°34' E 030°29'281103.0
2016-Nov-27 18:33N 69°07' E 017°33'1110.9
2016-Nov-27 17:33N 69°11' E 018°01'267266.8
2016-Nov-27 16:33N 70°08' E 030°33'15 6.2
2016-Nov-27 14:11N 70°03' E 029°53'5 7.5
2016-Nov-27 13:33N 70°03' E 029°39'9 2.2
2016-Nov-27 09:21N 70°03' E 029°12'2 2.5
2016-Nov-27 08:21N 70°01' E 029°18'5 6.0
2016-Nov-27 07:31N 70°02' E 029°32'8 7.8
2016-Nov-27 06:30N 70°02' E 029°56'8 7.8
2016-Nov-27 05:27N 70°05' E 030°19'2 2.5
2016-Nov-27 04:34N 70°06' E 030°24'8 7.7
2016-Nov-27 03:33N 70°11' E 030°42'11 7.4
2016-Nov-27 02:06N 70°18' E 031°05'4 7.6
2016-Nov-27 01:33N 70°22' E 031°04'21 8.5
2016-Nov-26 23:07N 70°38' E 030°24'4 6.8
2016-Nov-26 22:33N 70°41' E 030°16'7 7.0
2016-Nov-26 21:33N 70°45' E 029°58'7 7.5
2016-Nov-26 20:33N 70°49' E 029°39'7 7.3
2016-Nov-26 19:32N 70°53' E 029°20'7 7.0
2016-Nov-26 18:32N 70°57' E 029°02'22 7.4
2016-Nov-26 15:34N 71°08' E 028°03'5 4.4
2016-Nov-26 14:19N 71°08' E 027°46'6 7.5
2016-Nov-26 13:32N 71°06' E 027°29'22 7.4
2016-Nov-26 10:33N 70°45' E 027°18'1 0.6
2016-Nov-26 09:23N 70°44' E 027°19'2 2.3
2016-Nov-26 08:33N 70°46' E 027°16'1 0.9
2016-Nov-26 07:21N 70°46' E 027°13'6 6.3
2016-Nov-26 06:28N 70°42' E 027°03'4 4.2
2016-Nov-26 05:32N 70°38' E 027°06'14 2.8
2016-Nov-26 00:32N 70°51' E 026°51'7 7.3
2016-Nov-25 23:33N 70°58' E 026°44'7 7.3
2016-Nov-25 22:32N 70°58' E 026°22'7 7.2
2016-Nov-25 21:32N 70°57' E 025°59'7 7.4
2016-Nov-25 20:33N 70°56' E 025°37'7 7.5
2016-Nov-25 19:33N 70°59' E 025°17'8 7.6
2016-Nov-25 18:31N 70°60' E 024°53'8 7.7
2016-Nov-25 17:33N 71°01' E 024°30'  

Dump ship's entire track history